Time;durP1;ratioP1;P1;durP2;ratioP2;P2;SDS_P1;SDS_P2;PMS_P1;PMS_P2;Temp;Humidity;BMP_temperature;BMP_pressure;BME280_temperature;BME280_humidity;BME280_pressure;Samples;Min_cycle;Max_cycle;Signal;HPM_P1;HPM_P2
2021/10/24 00:02:01;;;;;;;3.35;2.40;;;21.50;44.70;;;;;;1882794;76;21056;-39
2021/10/24 00:04:29;;;;;;;3.25;2.65;;;21.50;44.60;;;;;;1882732;76;21064;-40
2021/10/24 00:06:56;;;;;;;4.05;2.67;;;21.50;44.40;;;;;;1882765;76;21040;-40
2021/10/24 00:09:24;;;;;;;5.70;2.80;;;21.50;44.40;;;;;;1882773;75;21141;-39
2021/10/24 00:11:51;;;;;;;4.67;2.87;;;21.50;44.20;;;;;;1882779;76;21063;-39
2021/10/24 00:14:19;;;;;;;3.80;2.40;;;21.60;44.20;;;;;;1882795;76;21083;-41
2021/10/24 00:16:46;;;;;;;4.12;2.72;;;21.50;44.20;;;;;;1882739;76;21533;-40
2021/10/24 00:19:14;;;;;;;3.80;2.60;;;21.50;44.20;;;;;;1882754;76;21090;-43
2021/10/24 00:21:41;;;;;;;3.92;2.08;;;21.50;44.10;;;;;;1882771;76;21473;-39
2021/10/24 00:24:09;;;;;;;5.45;2.87;;;21.50;44.00;;;;;;1882877;76;21524;-40
2021/10/24 00:26:36;;;;;;;3.05;2.62;;;21.60;44.00;;;;;;1882896;76;21076;-38
2021/10/24 00:29:03;;;;;;;2.60;2.05;;;21.50;44.00;;;;;;1882771;76;21465;-42
2021/10/24 00:31:31;;;;;;;3.33;2.37;;;21.60;44.00;;;;;;1882731;76;21562;-41
2021/10/24 00:33:59;;;;;;;3.60;2.20;;;21.50;43.80;;;;;;1882770;76;21058;-41
2021/10/24 00:36:27;;;;;;;4.03;2.50;;;21.60;44.00;;;;;;1882806;76;21079;-42
2021/10/24 00:38:54;;;;;;;3.70;2.62;;;21.60;43.90;;;;;;1882764;76;21008;-39
2021/10/24 00:41:21;;;;;;;4.53;2.22;;;21.60;43.90;;;;;;1882741;76;21521;-41
2021/10/24 00:43:49;;;;;;;2.58;2.33;;;21.60;43.90;;;;;;1882893;76;21548;-39
2021/10/24 00:46:16;;;;;;;3.70;2.35;;;21.60;43.80;;;;;;1882757;76;21114;-39
2021/10/24 00:48:44;;;;;;;5.47;3.17;;;21.60;43.80;;;;;;1882856;76;21558;-39
2021/10/24 00:51:13;;;;;;;3.10;2.30;;;21.60;43.90;;;;;;1882760;76;21059;-41
2021/10/24 00:53:41;;;;;;;2.92;2.10;;;21.60;43.70;;;;;;1882795;76;21056;-40
2021/10/24 00:56:08;;;;;;;2.60;2.00;;;21.60;43.60;;;;;;1882747;76;21118;-37
2021/10/24 00:58:36;;;;;;;2.98;2.42;;;21.60;43.60;;;;;;1882699;76;21031;-40
2021/10/24 01:01:03;;;;;;;2.45;2.12;;;21.60;43.60;;;;;;1882857;76;21733;-42
2021/10/24 01:03:30;;;;;;;2.62;2.10;;;21.60;43.60;;;;;;1882770;76;21027;-39
2021/10/24 01:06:00;;;;;;;3.45;2.50;;;21.60;43.60;;;;;;1882841;76;21524;-39
2021/10/24 01:08:27;;;;;;;2.75;2.05;;;21.60;43.60;;;;;;1882608;76;21585;-40
2021/10/24 01:10:54;;;;;;;1.85;1.67;;;21.60;44.10;;;;;;1882723;75;21549;-42
2021/10/24 01:13:22;;;;;;;2.58;2.22;;;21.60;43.40;;;;;;1882663;76;21492;-39
2021/10/24 01:15:49;;;;;;;2.22;1.92;;;21.60;43.30;;;;;;1882794;76;21071;-41
2021/10/24 01:18:17;;;;;;;2.87;2.20;;;21.60;43.30;;;;;;1882777;76;21165;-41
2021/10/24 01:20:44;;;;;;;2.90;2.10;;;21.60;43.30;;;;;;1882962;76;21514;-41
2021/10/24 01:23:11;;;;;;;2.37;1.85;;;21.60;43.30;;;;;;1882800;76;21067;-39
2021/10/24 01:25:39;;;;;;;2.30;2.10;;;21.60;43.30;;;;;;1882738;76;21047;-40
2021/10/24 01:28:08;;;;;;;2.72;2.02;;;21.60;43.30;;;;;;1882657;76;21068;-42
2021/10/24 01:30:35;;;;;;;3.85;2.20;;;21.60;43.20;;;;;;1882823;76;21057;-39
2021/10/24 01:33:03;;;;;;;3.22;1.80;;;21.60;43.20;;;;;;1882772;76;21032;-41
2021/10/24 01:35:30;;;;;;;2.67;2.02;;;21.60;43.20;;;;;;1882770;76;21512;-40
2021/10/24 01:37:58;;;;;;;2.58;1.90;;;21.60;43.10;;;;;;1882834;76;21595;-42
2021/10/24 01:40:26;;;;;;;2.17;1.95;;;21.60;43.10;;;;;;1882879;76;21485;-41
2021/10/24 01:42:55;;;;;;;2.85;2.20;;;21.60;43.00;;;;;;1882807;76;21182;-40
2021/10/24 01:45:24;;;;;;;2.52;2.02;;;21.60;43.10;;;;;;1882737;76;21071;-45
2021/10/24 01:47:53;;;;;;;2.92;1.80;;;21.60;43.00;;;;;;1882730;76;21036;-39
2021/10/24 01:50:21;;;;;;;2.72;2.15;;;21.60;43.00;;;;;;1882748;76;21060;-39
2021/10/24 01:52:48;;;;;;;2.08;1.87;;;21.60;42.90;;;;;;1882865;76;21582;-39
2021/10/24 01:55:17;;;;;;;2.20;1.95;;;21.60;42.70;;;;;;1882814;76;21575;-39
2021/10/24 01:57:47;;;;;;;1.98;1.77;;;21.60;43.20;;;;;;1882774;76;21489;-39
2021/10/24 02:00:15;;;;;;;2.52;2.27;;;21.60;42.60;;;;;;1882735;76;21044;-38
2021/10/24 02:02:42;;;;;;;2.55;1.80;;;21.60;42.60;;;;;;1882782;76;21052;-39
2021/10/24 02:05:10;;;;;;;3.67;2.22;;;21.60;42.50;;;;;;1882719;76;21114;-43
2021/10/24 02:07:38;;;;;;;2.02;1.77;;;21.60;42.80;;;;;;1882698;76;21096;-39
2021/10/24 02:10:08;;;;;;;3.98;2.00;;;21.60;42.70;;;;;;1882692;75;21088;-38
2021/10/24 02:12:36;;;;;;;2.85;1.90;;;21.60;42.60;;;;;;1882697;76;21044;-43
2021/10/24 02:15:04;;;;;;;2.30;2.10;;;21.50;42.60;;;;;;1888584;76;21071;-41
2021/10/24 02:17:32;;;;;;;3.05;2.17;;;21.60;43.20;;;;;;1891887;76;21068;-41
2021/10/24 02:19:59;;;;;;;2.55;2.10;;;21.60;42.60;;;;;;1891966;76;21056;-40
2021/10/24 02:22:27;;;;;;;4.45;2.45;;;21.50;42.50;;;;;;1892020;76;21523;-38
2021/10/24 02:24:54;;;;;;;2.92;2.10;;;21.60;42.40;;;;;;1892083;76;21505;-38
2021/10/24 02:27:22;;;;;;;2.77;2.22;;;21.60;42.60;;;;;;1892078;76;21497;-39
2021/10/24 02:29:50;;;;;;;2.35;2.00;;;21.60;42.70;;;;;;1891944;76;21505;-40
2021/10/24 02:32:18;;;;;;;2.60;2.40;;;21.60;42.60;;;;;;1891984;76;21516;-41
2021/10/24 02:34:45;;;;;;;2.67;2.10;;;21.60;42.60;;;;;;1891966;76;21067;-40
2021/10/24 02:37:13;;;;;;;3.50;2.17;;;21.60;42.60;;;;;;1891898;76;21130;-41
2021/10/24 02:39:40;;;;;;;3.02;2.52;;;21.60;42.70;;;;;;1891945;76;21060;-40
2021/10/24 02:42:08;;;;;;;3.70;2.30;;;21.50;42.70;;;;;;1891947;76;21071;-38
2021/10/24 02:44:35;;;;;;;3.75;2.37;;;21.50;42.70;;;;;;1891926;76;21059;-38
2021/10/24 02:47:03;;;;;;;3.72;2.33;;;21.60;42.80;;;;;;1892148;76;21492;-43
2021/10/24 02:49:31;;;;;;;3.27;2.30;;;21.50;42.70;;;;;;1891888;76;21515;-41
2021/10/24 02:51:58;;;;;;;4.25;2.67;;;21.50;42.70;;;;;;1892022;76;21519;-40
2021/10/24 02:54:25;;;;;;;3.42;2.60;;;21.50;42.60;;;;;;1892112;76;21452;-40
2021/10/24 02:56:53;;;;;;;4.15;3.17;;;21.50;42.50;;;;;;1891951;76;21047;-40
2021/10/24 02:59:21;;;;;;;5.12;2.75;;;21.60;42.50;;;;;;1892163;76;21508;-42
2021/10/24 03:01:48;;;;;;;3.47;2.70;;;21.60;42.40;;;;;;1891920;76;21071;-42
2021/10/24 03:04:16;;;;;;;3.95;3.08;;;21.60;42.30;;;;;;1891875;76;21063;-42
2021/10/24 03:06:43;;;;;;;3.50;2.80;;;21.60;42.30;;;;;;1892039;76;21583;-39
2021/10/24 03:09:11;;;;;;;2.80;2.47;;;21.60;42.20;;;;;;1891961;75;21516;-41
2021/10/24 03:11:38;;;;;;;4.22;2.65;;;21.60;42.20;;;;;;1892044;76;21433;-40
2021/10/24 03:14:06;;;;;;;4.12;2.90;;;21.60;42.10;;;;;;1892063;76;21520;-42
2021/10/24 03:16:36;;;;;;;4.08;3.17;;;21.60;42.10;;;;;;1892172;76;21567;-41
2021/10/24 03:19:04;;;;;;;4.42;3.10;;;21.50;42.00;;;;;;1892064;76;21079;-39
2021/10/24 03:21:31;;;;;;;6.28;3.65;;;21.50;42.00;;;;;;1892065;76;21079;-38
2021/10/24 03:24:00;;;;;;;4.28;2.87;;;21.50;41.90;;;;;;1892020;76;21047;-40
2021/10/24 03:26:29;;;;;;;3.33;2.58;;;21.50;41.90;;;;;;1892111;76;21105;-40
2021/10/24 03:28:56;;;;;;;3.98;3.10;;;21.50;41.90;;;;;;1892030;76;21547;-38
2021/10/24 03:31:24;;;;;;;4.47;3.55;;;21.50;41.90;;;;;;1891994;76;21524;-38
2021/10/24 03:33:51;;;;;;;4.42;3.50;;;21.50;41.80;;;;;;1892128;76;21485;-38
2021/10/24 03:36:19;;;;;;;4.75;3.35;;;21.50;41.80;;;;;;1892031;76;21067;-40
2021/10/24 03:38:46;;;;;;;4.10;3.40;;;21.50;41.80;;;;;;1891999;76;21130;-38
2021/10/24 03:41:14;;;;;;;4.25;3.37;;;21.50;41.70;;;;;;1892139;76;21559;-38
2021/10/24 03:43:41;;;;;;;5.72;3.30;;;21.50;41.70;;;;;;1892149;76;21055;-38
2021/10/24 03:46:09;;;;;;;8.30;4.00;;;21.50;41.60;;;;;;1892096;76;21559;-39
2021/10/24 03:48:36;;;;;;;5.03;3.40;;;21.50;41.60;;;;;;1892017;76;21534;-39
2021/10/24 03:51:04;;;;;;;5.85;3.40;;;21.50;41.60;;;;;;1892039;76;21071;-39
2021/10/24 03:53:31;;;;;;;5.25;3.40;;;21.50;41.60;;;;;;1892020;76;21051;-38
2021/10/24 03:55:59;;;;;;;5.05;3.58;;;21.50;41.50;;;;;;1892026;76;21547;-39
2021/10/24 03:58:27;;;;;;;6.28;3.65;;;21.50;41.50;;;;;;1891971;76;21089;-38
2021/10/24 04:00:55;;;;;;;6.05;3.45;;;21.40;41.40;;;;;;1892040;76;21031;-40
2021/10/24 04:03:22;;;;;;;6.90;3.45;;;21.40;41.40;;;;;;1892020;76;21051;-38
2021/10/24 04:05:50;;;;;;;5.47;3.87;;;21.40;41.30;;;;;;1892027;76;21138;-38
2021/10/24 04:08:18;;;;;;;5.67;3.52;;;21.40;41.30;;;;;;1892079;76;21059;-41
2021/10/24 04:10:46;;;;;;;6.37;3.77;;;21.40;41.40;;;;;;1892088;75;21555;-40
2021/10/24 04:13:13;;;;;;;4.97;3.40;;;21.40;41.30;;;;;;1892008;76;21153;-38
2021/10/24 04:15:42;;;;;;;4.90;3.62;;;21.40;41.30;;;;;;1891896;76;21095;-43
2021/10/24 04:18:09;;;;;;;7.30;3.40;;;21.40;41.20;;;;;;1892026;76;21048;-39
2021/10/24 04:20:36;;;;;;;4.28;3.20;;;21.40;41.20;;;;;;1892058;76;21137;-38
2021/10/24 04:23:04;;;;;;;5.85;3.72;;;21.40;41.20;;;;;;1892061;76;21122;-38
2021/10/24 04:25:59;;;;;;;5.95;4.00;;;21.40;41.20;;;;;;1892009;76;21488;-39
2021/10/24 04:28:27;;;;;;;4.65;3.50;;;21.40;41.10;;;;;;1892003;76;21064;-41
2021/10/24 04:30:54;;;;;;;5.92;4.08;;;21.30;41.80;;;;;;1892122;76;21546;-39
2021/10/24 04:33:22;;;;;;;5.33;3.35;;;21.30;41.10;;;;;;1892101;76;21574;-39
2021/10/24 04:35:49;;;;;;;6.47;3.75;;;21.30;41.10;;;;;;1892002;76;21071;-38
2021/10/24 04:38:17;;;;;;;5.50;3.70;;;21.40;41.10;;;;;;1891946;76;21540;-39
2021/10/24 04:40:44;;;;;;;5.10;3.42;;;21.30;41.10;;;;;;1892187;76;21079;-41
2021/10/24 04:43:15;;;;;;;7.35;3.90;;;21.30;41.00;;;;;;1892041;76;21051;-41
2021/10/24 04:45:43;;;;;;;6.15;3.42;;;21.30;41.00;;;;;;1892280;76;21457;-42
2021/10/24 04:48:11;;;;;;;5.92;3.75;;;21.30;41.00;;;;;;1892182;76;21477;-37
2021/10/24 04:50:38;;;;;;;7.20;3.80;;;21.30;40.90;;;;;;1892023;76;21567;-39
2021/10/24 04:53:09;;;;;;;8.18;4.28;;;21.30;40.90;;;;;;1891988;76;21024;-38
2021/10/24 04:55:36;;;;;;;5.00;3.93;;;21.30;40.90;;;;;;1892227;76;21121;-39
2021/10/24 04:58:04;;;;;;;4.70;3.50;;;21.30;40.90;;;;;;1891929;76;21765;-45
2021/10/24 05:00:32;;;;;;;5.83;3.60;;;21.30;40.90;;;;;;1891992;76;21059;-39
2021/10/24 05:03:02;;;;;;;6.55;3.90;;;21.30;40.80;;;;;;1891981;76;21071;-38
2021/10/24 05:05:29;;;;;;;6.97;4.17;;;21.30;40.80;;;;;;1891999;76;21130;-40
2021/10/24 05:07:57;;;;;;;5.72;3.75;;;21.30;40.80;;;;;;1892087;76;21124;-40
2021/10/24 05:10:24;;;;;;;6.80;3.72;;;21.30;40.80;;;;;;1891985;75;21064;-38
2021/10/24 05:12:52;;;;;;;5.28;3.55;;;21.30;40.70;;;;;;1891987;76;21040;-39
2021/10/24 05:15:21;;;;;;;6.80;4.05;;;21.30;40.70;;;;;;1891006;76;21523;-39
2021/10/24 05:17:49;;;;;;;4.95;3.75;;;21.30;40.70;;;;;;1882726;76;21079;-40
2021/10/24 05:20:16;;;;;;;6.22;4.22;;;21.30;40.60;;;;;;1882719;76;21048;-39
2021/10/24 05:22:44;;;;;;;7.30;4.03;;;21.30;40.60;;;;;;1882805;76;21138;-38
2021/10/24 05:25:12;;;;;;;6.65;4.28;;;21.30;40.60;;;;;;1882821;76;21544;-38
2021/10/24 05:27:39;;;;;;;6.03;4.00;;;21.30;40.60;;;;;;1882705;76;21087;-40
2021/10/24 05:30:08;;;;;;;6.75;3.87;;;21.30;40.60;;;;;;1882726;76;21141;-40
2021/10/24 05:32:35;;;;;;;5.08;3.90;;;21.30;40.60;;;;;;1882909;76;21602;-39
2021/10/24 05:35:03;;;;;;;5.15;3.40;;;21.30;40.50;;;;;;1882667;76;21068;-39
2021/10/24 05:37:30;;;;;;;6.05;3.90;;;21.30;40.50;;;;;;1882782;76;21068;-38
2021/10/24 05:39:58;;;;;;;5.70;3.55;;;21.30;40.60;;;;;;1882800;76;21572;-38
2021/10/24 05:42:25;;;;;;;5.95;4.03;;;21.30;40.40;;;;;;1882759;76;21091;-41
2021/10/24 05:44:53;;;;;;;4.90;3.55;;;21.30;40.40;;;;;;1882726;76;21485;-40
2021/10/24 05:47:20;;;;;;;6.03;3.72;;;21.30;40.40;;;;;;1882771;76;21527;-40
2021/10/24 05:49:49;;;;;;;6.42;3.58;;;21.30;40.40;;;;;;1882832;76;21520;-39
2021/10/24 05:52:18;;;;;;;7.05;4.05;;;21.30;40.40;;;;;;1882596;76;21134;-40
2021/10/24 05:54:46;;;;;;;7.08;4.08;;;21.30;40.40;;;;;;1882738;76;21063;-40
2021/10/24 05:57:13;;;;;;;5.97;4.37;;;21.30;40.40;;;;;;1882730;76;21079;-37
2021/10/24 05:59:41;;;;;;;6.35;3.40;;;21.20;40.30;;;;;;1882772;76;21453;-40
2021/10/24 06:02:13;;;;;;;6.20;3.70;;;21.30;40.40;;;;;;1882777;76;21723;-40
2021/10/24 06:04:38;;;;;;;4.92;3.62;;;21.20;40.30;;;;;;1881571;76;21214;-38
2021/10/24 06:07:05;;;;;;;9.08;4.42;;;21.20;40.40;;;;;;1882813;76;21079;-40
2021/10/24 06:12:14;;;;;;;6.17;3.70;;;21.20;40.30;;;;;;1847644;76;21635;-41
2021/10/24 06:14:39;;;;;;;5.95;3.08;;;21.20;40.30;;;;;;1881787;76;21981;-39
2021/10/24 06:17:08;;;;;;;8.15;4.20;;;21.20;40.30;;;;;;1882616;76;21100;-39
2021/10/24 06:19:37;;;;;;;4.53;3.37;;;21.20;40.30;;;;;;1882672;76;21126;-38
2021/10/24 06:22:05;;;;;;;8.53;3.98;;;21.20;40.30;;;;;;1881803;76;21566;-39
2021/10/24 06:24:33;;;;;;;6.97;3.72;;;21.20;40.30;;;;;;1882775;76;21520;-38
2021/10/24 06:27:00;;;;;;;7.42;4.12;;;21.20;40.30;;;;;;1882662;76;21552;-39
2021/10/24 06:29:28;;;;;;;6.37;4.10;;;21.20;40.20;;;;;;1882789;76;21122;-38
2021/10/24 06:31:56;;;;;;;5.50;3.60;;;21.20;40.20;;;;;;1882695;76;21505;-38
2021/10/24 06:34:23;;;;;;;9.33;4.00;;;21.20;40.10;;;;;;1882812;76;21563;-38
2021/10/24 06:36:51;;;;;;;5.03;3.62;;;21.20;40.20;;;;;;1882772;76;21566;-40
2021/10/24 06:39:19;;;;;;;8.53;4.05;;;21.30;40.20;;;;;;1882689;76;21075;-38
2021/10/24 06:41:46;;;;;;;7.30;3.98;;;21.20;40.10;;;;;;1882637;76;21454;-37
2021/10/24 06:44:14;;;;;;;6.62;4.17;;;21.20;40.10;;;;;;1882781;76;21478;-39
2021/10/24 06:46:41;;;;;;;4.97;3.37;;;21.20;40.10;;;;;;1882912;76;21555;-40
2021/10/24 06:49:09;;;;;;;6.22;3.70;;;21.30;40.10;;;;;;1882810;76;21067;-40
2021/10/24 06:51:37;;;;;;;7.00;3.50;;;21.20;40.00;;;;;;1882791;76;21126;-38
2021/10/24 06:54:05;;;;;;;6.83;3.62;;;21.20;40.10;;;;;;1882902;76;21485;-38
2021/10/24 06:56:32;;;;;;;7.25;3.72;;;21.30;40.20;;;;;;1882856;76;21575;-40
2021/10/24 06:59:00;;;;;;;5.87;3.87;;;21.20;40.20;;;;;;1882816;76;21519;-38
2021/10/24 07:01:27;;;;;;;5.90;3.62;;;21.20;40.10;;;;;;1882747;76;21582;-39
2021/10/24 07:03:55;;;;;;;7.37;3.60;;;21.30;40.20;;;;;;1882895;76;21525;-39
2021/10/24 07:06:23;;;;;;;5.58;3.40;;;21.30;40.00;;;;;;1882899;76;21513;-40
2021/10/24 07:08:51;;;;;;;8.38;3.62;;;21.30;40.10;;;;;;1882716;76;21117;-37
2021/10/24 07:11:18;;;;;;;8.13;3.90;;;21.30;40.20;;;;;;1882840;75;21564;-41
2021/10/24 07:13:46;;;;;;;9.10;3.70;;;21.30;40.20;;;;;;1882839;76;21134;-39
2021/10/24 07:16:13;;;;;;;7.37;4.30;;;21.20;40.10;;;;;;1883583;76;21529;-38
2021/10/24 07:18:41;;;;;;;11.70;3.80;;;21.20;40.10;;;;;;1891972;76;21551;-38
2021/10/24 07:21:08;;;;;;;6.75;3.90;;;21.20;40.20;;;;;;1892026;76;21083;-38
2021/10/24 07:23:36;;;;;;;5.83;3.83;;;21.20;40.10;;;;;;1892010;76;21121;-40
2021/10/24 07:26:03;;;;;;;7.17;3.60;;;21.30;40.30;;;;;;1892085;76;21071;-44
2021/10/24 07:28:31;;;;;;;6.25;3.47;;;21.30;40.20;;;;;;1892100;76;21079;-37
2021/10/24 07:30:58;;;;;;;6.15;3.95;;;21.30;40.30;;;;;;1892008;76;21625;-42
2021/10/24 07:33:26;;;;;;;6.90;3.65;;;21.30;40.20;;;;;;1892057;76;21062;-40
2021/10/24 07:35:54;;;;;;;8.83;3.60;;;21.20;40.20;;;;;;1891982;76;21222;-38
2021/10/24 07:38:22;;;;;;;7.45;3.58;;;21.30;40.30;;;;;;1892166;76;21749;-38
2021/10/24 07:40:49;;;;;;;6.55;3.92;;;21.30;40.30;;;;;;1892139;76;21568;-40
2021/10/24 07:43:21;;;;;;;7.50;3.98;;;21.30;40.40;;;;;;1892023;76;21110;-42
2021/10/24 07:45:51;;;;;;;7.37;3.75;;;21.30;41.00;;;;;;1891261;76;21562;-38
2021/10/24 07:48:20;;;;;;;6.25;3.77;;;21.30;40.50;;;;;;1890651;76;21091;-40
2021/10/24 07:50:47;;;;;;;6.40;3.85;;;21.20;40.40;;;;;;1891978;76;21063;-38
2021/10/24 07:53:15;;;;;;;5.92;3.40;;;21.20;40.50;;;;;;1891995;76;21020;-39
2021/10/24 07:55:43;;;;;;;5.67;3.27;;;21.20;40.50;;;;;;1892127;76;21523;-38
2021/10/24 07:58:11;;;;;;;6.05;3.55;;;21.30;40.50;;;;;;1891999;76;21598;-37
2021/10/24 08:00:38;;;;;;;10.28;4.12;;;21.30;40.50;;;;;;1892093;76;21641;-41
2021/10/24 08:03:09;;;;;;;5.85;3.22;;;21.20;40.50;;;;;;1892030;76;21093;-40
2021/10/24 08:05:37;;;;;;;7.62;3.80;;;21.30;40.60;;;;;;1892019;76;21060;-38
2021/10/24 08:08:04;;;;;;;6.25;3.58;;;21.20;40.50;;;;;;1892082;76;21040;-40
2021/10/24 08:10:32;;;;;;;5.35;3.22;;;21.20;40.40;;;;;;1892024;75;21095;-39
2021/10/24 08:12:59;;;;;;;7.30;3.72;;;21.30;40.60;;;;;;1892146;76;21465;-38
2021/10/24 08:15:27;;;;;;;6.80;3.70;;;21.30;40.60;;;;;;1892118;76;21513;-40
2021/10/24 08:17:54;;;;;;;6.12;3.35;;;21.30;40.50;;;;;;1886588;76;21174;-42
2021/10/24 08:20:22;;;;;;;6.47;3.30;;;21.30;41.00;;;;;;1882807;76;21558;-40
2021/10/24 08:22:49;;;;;;;6.67;3.47;;;21.30;40.60;;;;;;1882868;76;21079;-38
2021/10/24 08:25:17;;;;;;;7.62;3.60;;;21.30;40.50;;;;;;1882893;76;21598;-39
2021/10/24 08:27:44;;;;;;;6.92;3.67;;;21.30;40.40;;;;;;1882731;76;21536;-41
2021/10/24 08:30:12;;;;;;;5.95;3.50;;;21.40;40.50;;;;;;1882834;76;21525;-39
2021/10/24 08:32:41;;;;;;;5.95;3.58;;;21.40;40.40;;;;;;1882735;76;21059;-39
2021/10/24 08:35:09;;;;;;;7.78;3.35;;;21.30;40.40;;;;;;1882931;76;21103;-39
2021/10/24 08:37:37;;;;;;;5.67;3.52;;;21.40;40.40;;;;;;1882826;76;21101;-38
2021/10/24 08:40:06;;;;;;;5.72;3.27;;;21.40;40.30;;;;;;1882809;76;21072;-38
2021/10/24 08:42:38;;;;;;;6.72;3.50;;;21.40;40.40;;;;;;1882852;76;21509;-42
2021/10/24 08:45:05;;;;;;;7.05;3.60;;;21.40;40.30;;;;;;1882245;76;21067;-40
2021/10/24 08:47:33;;;;;;;7.17;3.17;;;21.40;40.40;;;;;;1882743;76;21033;-41
2021/10/24 08:50:00;;;;;;;7.15;3.42;;;21.40;40.50;;;;;;1882875;76;21139;-40
2021/10/24 08:52:28;;;;;;;6.72;3.52;;;21.40;40.50;;;;;;1882830;76;21500;-39
2021/10/24 08:54:56;;;;;;;6.45;3.25;;;21.40;40.50;;;;;;1882849;76;21475;-38
2021/10/24 08:57:30;;;;;;;5.85;3.50;;;21.40;40.40;;;;;;1883092;76;21055;-38
2021/10/24 09:00:00;;;;;;;5.72;3.30;;;21.40;40.50;;;;;;1882789;76;21079;-42
2021/10/24 09:02:47;;;;;;;7.37;3.90;;;21.40;40.60;;;;;;1881949;76;21591;-38
2021/10/24 09:05:44;;;;;;;6.08;3.80;;;21.40;40.50;;;;;;1882698;76;21044;-40
2021/10/24 09:08:20;;;;;;;10.63;3.42;;;21.40;40.50;;;;;;1882732;76;21048;-40
2021/10/24 09:10:50;;;;;;;8.08;3.67;;;21.30;40.70;;;;;;1882765;75;21161;-39
2021/10/24 09:13:22;;;;;;;5.37;3.42;;;21.30;40.70;;;;;;1882762;76;21043;-38
2021/10/24 09:16:04;;;;;;;6.92;3.30;;;21.30;40.80;;;;;;1882846;76;21531;-38
2021/10/24 09:18:46;;;;;;;6.75;3.40;;;21.40;40.90;;;;;;1882730;76;21095;-40
2021/10/24 09:21:19;;;;;;;5.87;3.10;;;21.30;40.90;;;;;;1882882;76;21029;-39
2021/10/24 09:23:54;;;;;;;7.10;3.47;;;21.30;40.90;;;;;;1882694;76;21114;-39
2021/10/24 09:26:27;;;;;;;7.05;3.40;;;21.30;40.90;;;;;;1882713;76;21102;-38
2021/10/24 09:29:06;;;;;;;8.35;3.75;;;21.30;40.80;;;;;;1882717;76;21106;-38
2021/10/24 09:31:35;;;;;;;5.15;3.40;;;21.30;41.00;;;;;;1882761;76;21540;-39
2021/10/24 09:34:21;;;;;;;5.92;3.22;;;21.30;40.90;;;;;;1882969;76;21478;-38
2021/10/24 09:36:54;;;;;;;6.95;3.40;;;21.40;41.00;;;;;;1814236;78;21477;-39
2021/10/24 09:39:22;;;;;;;4.78;3.10;;;21.40;41.10;;;;;;1814082;79;21036;-38
2021/10/24 09:41:50;;;;;;;6.53;3.40;;;21.40;41.20;;;;;;1814196;79;21504;-40
2021/10/24 09:44:19;;;;;;;6.80;3.22;;;21.40;41.30;;;;;;1814234;79;21068;-38
2021/10/24 09:46:58;;;;;;;6.55;3.20;;;21.50;41.40;;;;;;1814239;79;21108;-40
2021/10/24 09:49:26;;;;;;;6.22;3.40;;;21.50;41.20;;;;;;1813463;79;21540;-40
2021/10/24 09:51:54;;;;;;;6.37;3.30;;;21.50;41.50;;;;;;1814126;79;21200;-40
2021/10/24 09:54:23;;;;;;;7.20;3.20;;;21.50;41.50;;;;;;1814096;79;21107;-38
2021/10/24 09:56:54;;;;;;;5.03;3.45;;;21.60;41.60;;;;;;1814119;79;21613;-38
2021/10/24 09:59:22;;;;;;;5.37;3.00;;;21.60;41.60;;;;;;1814148;79;21075;-41
2021/10/24 10:01:53;;;;;;;4.87;3.10;;;21.60;41.80;;;;;;1814118;79;21059;-41
2021/10/24 10:04:24;;;;;;;5.55;2.80;;;21.60;41.80;;;;;;1814073;79;21103;-39
2021/10/24 10:06:52;;;;;;;6.45;3.42;;;21.60;41.70;;;;;;1814249;79;21161;-39
2021/10/24 10:09:20;;;;;;;5.90;3.42;;;21.70;41.80;;;;;;1814062;78;21068;-39
2021/10/24 10:11:54;;;;;;;6.95;3.10;;;21.70;41.90;;;;;;1820315;76;21099;-39
2021/10/24 10:14:24;;;;;;;6.83;3.22;;;21.70;42.10;;;;;;1882784;76;21544;-38
2021/10/24 10:17:04;;;;;;;5.25;3.40;;;21.70;42.00;;;;;;1882806;76;21149;-40
2021/10/24 10:19:42;;;;;;;4.10;2.80;;;21.70;42.00;;;;;;1882771;76;21107;-39
2021/10/24 10:22:28;;;;;;;6.78;3.08;;;21.70;42.00;;;;;;1882820;76;21525;-40
2021/10/24 10:24:59;;;;;;;5.67;3.10;;;21.70;42.00;;;;;;1882929;76;21527;-40
2021/10/24 10:27:30;;;;;;;5.17;2.92;;;21.70;42.10;;;;;;1883092;76;21000;-40
2021/10/24 10:30:03;;;;;;;4.67;3.02;;;21.70;42.20;;;;;;1882894;76;21052;-38
2021/10/24 10:32:39;;;;;;;5.95;3.12;;;21.70;42.10;;;;;;1877577;76;21145;-39
2021/10/24 10:35:11;;;;;;;4.80;3.08;;;21.80;42.20;;;;;;1883046;76;21117;-38
2021/10/24 10:37:49;;;;;;;4.33;3.17;;;21.80;42.20;;;;;;1882836;76;21485;-39
2021/10/24 10:40:21;;;;;;;4.20;3.00;;;21.80;42.20;;;;;;1882491;76;21195;-38
2021/10/24 10:42:57;;;;;;;5.30;2.90;;;21.80;42.40;;;;;;1882800;76;21346;-38
2021/10/24 10:45:33;;;;;;;4.12;3.10;;;21.80;42.40;;;;;;1882902;76;21474;-39
2021/10/24 10:48:04;;;;;;;5.37;3.22;;;21.80;42.40;;;;;;1867384;76;21064;-38
2021/10/24 10:50:43;;;;;;;4.80;2.80;;;21.80;42.40;;;;;;1882820;76;21064;-39
2021/10/24 10:53:11;;;;;;;5.22;2.98;;;21.80;42.30;;;;;;1882571;76;21091;-39
2021/10/24 10:56:05;;;;;;;4.80;2.98;;;21.80;42.40;;;;;;1882811;76;21521;-39
2021/10/24 10:58:46;;;;;;;5.30;2.83;;;21.80;42.30;;;;;;1882718;76;21539;-40
2021/10/24 11:01:23;;;;;;;3.80;2.65;;;21.80;42.40;;;;;;1880842;76;21113;-42
2021/10/24 11:03:59;;;;;;;4.05;2.83;;;21.80;42.50;;;;;;1882829;76;21110;-39
2021/10/24 11:06:30;;;;;;;5.28;2.55;;;21.80;42.50;;;;;;1882835;76;21063;-39
2021/10/24 11:08:59;;;;;;;4.20;2.62;;;21.80;41.90;;;;;;1882799;76;21040;-42
2021/10/24 11:11:44;;;;;;;4.65;2.83;;;21.80;42.30;;;;;;1882709;75;21075;-39
2021/10/24 11:14:20;;;;;;;5.65;2.80;;;21.80;42.30;;;;;;1882554;76;21095;-38
2021/10/24 11:16:58;;;;;;;6.05;3.00;;;21.80;42.30;;;;;;1882857;76;21092;-38
2021/10/24 11:19:36;;;;;;;6.80;3.20;;;21.80;41.90;;;;;;1882691;76;21150;-38
2021/10/24 11:22:03;;;;;;;5.30;3.00;;;21.80;41.80;;;;;;1882002;76;21104;-38
2021/10/24 11:24:53;;;;;;;5.62;3.10;;;21.90;41.90;;;;;;1882970;76;21116;-40
2021/10/24 11:27:23;;;;;;;8.50;3.50;;;21.90;41.60;;;;;;1882843;76;21167;-38
2021/10/24 11:29:58;;;;;;;5.42;2.80;;;21.80;41.50;;;;;;1882852;76;21012;-38
2021/10/24 11:32:33;;;;;;;5.10;3.00;;;21.90;41.80;;;;;;1882731;76;21129;-37
2021/10/24 11:34:58;;;;;;;4.60;2.90;;;21.90;41.80;;;;;;1881744;76;21140;-39
2021/10/24 11:37:38;;;;;;;4.12;2.80;;;21.90;41.80;;;;;;1881284;76;21056;-38
2021/10/24 11:40:08;;;;;;;5.12;2.58;;;21.90;41.70;;;;;;1882395;76;21083;-39
2021/10/24 11:42:36;;;;;;;5.47;2.85;;;21.90;41.70;;;;;;1882775;76;21566;-39
2021/10/24 11:45:22;;;;;;;4.85;2.90;;;21.90;41.60;;;;;;1882785;76;21552;-39
2021/10/24 11:47:58;;;;;;;3.70;2.80;;;22.00;41.20;;;;;;1882769;76;21103;-39
2021/10/24 11:50:44;;;;;;;7.55;3.33;;;21.90;41.30;;;;;;1877879;76;21079;-39
2021/10/24 11:53:32;;;;;;;4.62;3.27;;;21.90;41.50;;;;;;1863311;76;21133;-40
2021/10/24 11:56:08;;;;;;;4.87;2.72;;;21.90;41.70;;;;;;1882947;76;21556;-39
2021/10/24 12:01:16;;;;;;;4.10;2.85;;;21.90;41.40;;;;;;1882708;76;21134;-38
2021/10/24 12:04:04;;;;;;;6.37;2.98;;;21.90;41.40;;;;;;1882475;76;21091;-41
2021/10/24 12:06:52;;;;;;;4.15;2.75;;;22.00;41.10;;;;;;1873745;76;21149;-39
2021/10/24 12:09:50;;;;;;;5.45;2.80;;;21.90;41.20;;;;;;1882759;75;21075;-38
2021/10/24 12:12:23;;;;;;;4.95;2.65;;;21.90;41.00;;;;;;1882779;76;21088;-39
2021/10/24 12:15:05;;;;;;;4.87;3.17;;;22.00;41.30;;;;;;1882820;76;21021;-37
2021/10/24 12:17:37;;;;;;;4.83;2.92;;;21.90;41.30;;;;;;1882930;76;21004;-38
2021/10/24 12:20:28;;;;;;;3.90;2.60;;;21.90;41.20;;;;;;1882792;76;21552;-43
2021/10/24 12:23:00;;;;;;;4.85;2.47;;;22.00;41.30;;;;;;1882801;76;21115;-38
2021/10/24 12:25:47;;;;;;;4.45;2.77;;;21.90;41.20;;;;;;1882862;76;21529;-38
2021/10/24 12:28:25;;;;;;;4.45;2.52;;;22.00;40.90;;;;;;1881321;76;21526;-37
2021/10/24 12:30:53;;;;;;;6.65;3.10;;;22.00;41.20;;;;;;1882211;76;21055;-38
2021/10/24 12:33:28;;;;;;;16.05;4.03;;;22.00;41.00;;;;;;1882944;76;21173;-41
2021/10/24 12:35:58;;;;;;;21.30;4.30;;;22.00;40.60;;;;;;1882840;76;21499;-39
2021/10/24 12:38:45;;;;;;;12.88;4.20;;;22.00;40.50;;;;;;1882625;76;21095;-38
2021/10/24 12:41:13;;;;;;;18.48;4.65;;;22.00;40.70;;;;;;1882770;76;21087;-39
2021/10/24 12:43:49;;;;;;;12.23;4.00;;;22.00;41.00;;;;;;1882925;76;21168;-39
2021/10/24 12:46:22;;;;;;;8.70;3.70;;;22.10;41.10;;;;;;1881426;76;21045;-39
2021/10/24 12:48:49;;;;;;;8.50;3.42;;;22.10;41.20;;;;;;1875739;76;21049;-39
2021/10/24 12:51:25;;;;;;;8.00;3.08;;;22.10;41.20;;;;;;1882749;76;21134;-39
2021/10/24 12:53:54;;;;;;;5.47;2.50;;;22.20;41.10;;;;;;1882810;76;21154;-38
2021/10/24 12:56:22;;;;;;;5.37;2.80;;;22.10;41.00;;;;;;1882871;76;21571;-40
2021/10/24 12:58:51;;;;;;;4.05;2.45;;;22.20;41.00;;;;;;1882742;76;21157;-39
2021/10/24 13:01:26;;;;;;;4.78;2.67;;;22.20;40.80;;;;;;1882817;76;21501;-39
2021/10/24 13:03:55;;;;;;;4.80;2.62;;;22.20;40.70;;;;;;1882829;76;21595;-39
2021/10/24 13:06:22;;;;;;;5.35;3.00;;;22.20;40.70;;;;;;1882795;76;21493;-39